Startpagina
METAR-TAF:

METAR-TAF

Vliegvelden :

Dakar, Senegal

Luchthaven Dakar

breedte: 14-44N, lengte: 017-30W, hoogte: 27 m

Actueel weer

Dit bericht is 1 uur en het 16 minuten geleden gemaakt, om 19:00 UTC
Wind 6 kt uit het noordnoordwesten
Temperatuur 21°C
Vochtigheid 78%
Druk 1012 hPa
Zicht 10 km of meer
geen wolken onder 1500 m en geen cumulonimbus

METAR: GOOY 241900Z 34006KT CAVOK 21/17 Q1012

Tijdstip: 20:16 (20:16 UTC)

Verwachting

Dit bericht is 2 uur en het 46 minuten geleden gemaakt, om 17:30 UTC
Verwachting geldig van 24 om 18 UTC tot 25 om 24 UTC
Wind 6 kt uit het westnoordwesten
Zicht 10 km of meer
Verspreide wolken op 1300 ft

TAF: GOOY 241730Z 2418/2524 30006KT 9999 SCT013

Waarnemingen en weersverwachtingen van meer dan 4000 vliegvelden (METAR en TAF).

De beschikbare stations zijn de gele en rode punten op de kaart.

Ga met uw muis naar het station om de naam te zien.

Klik dan om waarnemingen en weersverwachtingen te zien.

kaart wijzigen: klik op de groene knoppen met een zwart kruis om in te zoomen, op de groene knop met een streepje om uit te zoomen of op de groene pijlen voor aangrenzende kaarten.


METAR-TAF: